Montrose, Louisiana
Current Conditions -  °F | °C
As of 6:35 PM on Thursday 18 Dec 2014 (Local Time) from KIER Reporting Station
Overcast Overcast  
Wind Chill: 53°   Ceiling: 1200
Heat Index: 53°   Visibility: 10mi
Dew Point: 50°   Wind: 3mph
Humidity: 89%   Direction: 90°E
Pressure: 30.14"   Gusts: NA
Location:  31.6014°N, 92.9677°W
Report Text: KIER 190035Z AUTO 09003KT 10SM OVC012 12/10 A3014 RMK AO2 T01150098
Loading
Personal Weather Stations






























Interactive Weather Map New forecast layout! Learn more

10-Day Weather Forecast

Advertisements
Track Severe Weather on mobile